Terminal Aerodrome Forecast
Issued by NWS

Home | Current Version | Previous Version | Text Only | Print | Product List | Glossary On
Versions: 1 2 3 4 5 6 7 8 9 10 11 12 13 14 15 16 17 18 19 20
771
FTAK31 PAJN 162320
TAFASI
TAF
PASI 162320Z 1700/1724 17015G30KT 4SM -SHRA BR OVC025 WS020/24030KT
     FM170200 22015KT P6SM -SHRA OVC020
     FM170500 24010KT P6SM VCSH OVC020
     FM171800 33006KT P6SM BKN060=

USA.gov is the U.S. government's official web portal to all federal, state and local government web resources and services.